createdAt,value
2019-01-11T00:01:03.241Z,101651.50
2019-01-11T00:02:05.375Z,101655.77
2019-01-11T00:03:07.346Z,101642.39
2019-01-11T00:04:09.317Z,101642.94
2019-01-11T00:05:11.250Z,101640.92
2019-01-11T00:06:13.192Z,101636.44
2019-01-11T00:07:15.161Z,101630.90
2019-01-11T00:08:17.229Z,101622.14
2019-01-11T00:09:19.832Z,101635.34
2019-01-11T00:10:22.396Z,101652.62
2019-01-11T00:11:24.413Z,101644.45
2019-01-11T00:12:26.352Z,101648.35
2019-01-11T00:13:28.326Z,101655.78
2019-01-11T00:14:30.352Z,101641.10
2019-01-11T00:15:33.121Z,101650.20
2019-01-11T00:16:35.065Z,101639.42
2019-01-11T00:17:37.015Z,101640.34
2019-01-11T00:18:39.005Z,101637.20
2019-01-11T00:19:40.947Z,101640.73
2019-01-11T00:20:42.977Z,101639.42
2019-01-11T00:21:44.910Z,101636.45
2019-01-11T00:22:46.856Z,101641.65
2019-01-11T00:23:48.837Z,101645.55
2019-01-11T00:24:50.790Z,101640.73
2019-01-11T00:25:52.748Z,101637.75
2019-01-11T00:26:54.827Z,101638.13
2019-01-11T00:27:56.793Z,101639.97
2019-01-11T00:28:58.821Z,101647.23
2019-01-11T00:30:01.118Z,101649.08
2019-01-11T00:31:03.072Z,101642.02
2019-01-11T00:32:05.037Z,101635.52
2019-01-11T00:33:06.994Z,101638.13
2019-01-11T00:34:09.082Z,101636.65
2019-01-11T00:35:11.174Z,101631.07
2019-01-11T00:36:13.291Z,101631.24
2019-01-11T00:37:15.247Z,101627.34
2019-01-11T00:38:17.284Z,101633.84
2019-01-11T00:39:19.328Z,101631.62
2019-01-11T00:40:21.376Z,101630.32
2019-01-11T00:41:23.332Z,101632.17
2019-01-11T00:42:25.286Z,101621.39
2019-01-11T00:43:27.321Z,101628.27
2019-01-11T00:44:29.288Z,101619.72
2019-01-11T00:45:31.264Z,101619.16
2019-01-11T00:46:33.227Z,101619.16
2019-01-11T00:47:35.247Z,101618.62
2019-01-11T00:48:37.201Z,101616.56
2019-01-11T00:49:39.177Z,101615.27
2019-01-11T00:50:43.057Z,101613.21
2019-01-11T00:51:45.059Z,101612.28
2019-01-11T00:52:47.281Z,101613.96
2019-01-11T00:53:49.691Z,101615.27
2019-01-11T00:54:51.749Z,101613.04
2019-01-11T00:55:54.101Z,101605.61
2019-01-11T00:56:56.133Z,101607.45
2019-01-11T00:57:58.151Z,101608.77
2019-01-11T00:59:00.113Z,101613.96
2019-01-11T01:00:02.253Z,101618.62
2019-01-11T01:01:04.367Z,101621.77
2019-01-11T01:02:06.417Z,101616.94
2019-01-11T01:03:08.403Z,101621.77
2019-01-11T01:04:10.424Z,101619.54
2019-01-11T01:05:12.659Z,101618.41
2019-01-11T01:06:14.637Z,101614.51
2019-01-11T01:07:16.592Z,101621.02
2019-01-11T01:08:18.539Z,101610.98
2019-01-11T01:09:20.503Z,101618.03
2019-01-11T01:10:22.897Z,101617.11
2019-01-11T01:11:24.908Z,101620.84
2019-01-11T01:12:30.291Z,101622.86
2019-01-11T01:13:32.232Z,101620.09
2019-01-11T01:14:34.163Z,101621.02
2019-01-11T01:15:36.253Z,101616.19
2019-01-11T01:16:38.411Z,101621.02
2019-01-11T01:17:40.453Z,101610.23
2019-01-11T01:18:42.467Z,101613.59
2019-01-11T01:19:45.445Z,101608.38
2019-01-11T01:20:47.434Z,101611.91
2019-01-11T01:21:49.381Z,101609.31
2019-01-11T01:22:51.315Z,101613.59
2019-01-11T01:23:53.283Z,101610.06
2019-01-11T01:24:55.300Z,101611.91
2019-01-11T01:25:57.369Z,101604.11
2019-01-11T01:26:59.410Z,101603.73
2019-01-11T01:28:01.353Z,101601.12
2019-01-11T01:29:03.305Z,101609.10
2019-01-11T01:30:05.288Z,101605.41
2019-01-11T01:31:07.343Z,101608.55
2019-01-11T01:32:09.334Z,101608.55
2019-01-11T01:33:11.299Z,101607.26
2019-01-11T01:34:13.295Z,101605.58
2019-01-11T01:35:15.234Z,101609.86
2019-01-11T01:36:17.219Z,101610.03
2019-01-11T01:37:19.153Z,101607.80
2019-01-11T01:38:21.180Z,101610.95
2019-01-11T01:39:23.136Z,101600.00
2019-01-11T01:40:25.117Z,101605.58
2019-01-11T01:41:27.137Z,101603.73
2019-01-11T01:42:29.098Z,101601.30
2019-01-11T01:43:31.100Z,101602.43
2019-01-11T01:44:33.042Z,101595.55
2019-01-11T01:45:35.000Z,101596.09
2019-01-11T01:46:36.981Z,101603.36
2019-01-11T01:47:38.923Z,101597.02
2019-01-11T01:48:40.870Z,101595.55
2019-01-11T01:49:42.809Z,101600.92
2019-01-11T01:50:44.749Z,101594.80
2019-01-11T01:51:46.737Z,101592.58
2019-01-11T01:52:48.679Z,101592.37
2019-01-11T01:53:50.634Z,101589.59
2019-01-11T01:54:52.670Z,101590.14
2019-01-11T01:55:54.635Z,101583.47
2019-01-11T01:56:56.599Z,101587.16
2019-01-11T01:57:58.608Z,101592.37
2019-01-11T01:59:00.549Z,101593.13
2019-01-11T02:00:02.495Z,101597.77
2019-01-11T02:01:04.426Z,101589.22
2019-01-11T02:02:06.387Z,101589.22
2019-01-11T02:03:08.332Z,101594.42
2019-01-11T02:04:10.264Z,101599.63
2019-01-11T02:05:14.599Z,101598.33
2019-01-11T02:06:16.716Z,101600.38
2019-01-11T02:07:25.606Z,101603.15
2019-01-11T02:08:27.538Z,101600.55
2019-01-11T02:09:29.473Z,101597.40
2019-01-11T02:10:31.438Z,101598.33
2019-01-11T02:11:33.386Z,101593.67
2019-01-11T02:12:35.463Z,101583.09
2019-01-11T02:13:37.474Z,101584.39
2019-01-11T02:14:39.564Z,101595.72
2019-01-11T02:15:41.578Z,101592.20
2019-01-11T02:16:43.506Z,101593.88
2019-01-11T02:17:45.470Z,101603.52
2019-01-11T02:18:47.436Z,101595.34
2019-01-11T02:19:49.368Z,101603.70
2019-01-11T02:20:51.314Z,101595.34
2019-01-11T02:21:54.850Z,101596.64
2019-01-11T02:22:56.910Z,101594.80
2019-01-11T02:23:58.940Z,101593.13
2019-01-11T02:25:00.955Z,101581.41
2019-01-11T02:26:06.684Z,101578.27
2019-01-11T02:27:08.626Z,101576.97
2019-01-11T02:28:10.684Z,101573.44
2019-01-11T02:29:12.622Z,101573.44
2019-01-11T02:30:14.568Z,101569.91
2019-01-11T02:31:16.551Z,101575.28
2019-01-11T02:32:18.545Z,101570.46
2019-01-11T02:33:25.087Z,101570.30
2019-01-11T02:34:26.524Z,101569.54
2019-01-11T02:35:28.522Z,101566.56
2019-01-11T02:36:30.475Z,101569.16
2019-01-11T02:37:34.094Z,101569.54
2019-01-11T02:38:36.059Z,101566.39
2019-01-11T02:39:38.072Z,101570.46
2019-01-11T02:40:40.014Z,101568.23
2019-01-11T02:41:41.954Z,101562.48
2019-01-11T02:42:43.926Z,101554.14
2019-01-11T02:43:45.896Z,101554.30
2019-01-11T02:44:47.944Z,101564.16
2019-01-11T02:45:49.928Z,101552.29
2019-01-11T02:46:51.963Z,101565.47
2019-01-11T02:47:53.979Z,101561.56
2019-01-11T02:50:05.246Z,101559.34
2019-01-11T02:51:07.270Z,101550.98
2019-01-11T02:52:09.286Z,101548.39
2019-01-11T02:53:11.221Z,101551.91
2019-01-11T02:54:13.277Z,101545.78
2019-01-11T02:55:15.373Z,101543.36
2019-01-11T02:56:18.608Z,101544.11
2019-01-11T02:57:20.559Z,101552.46
2019-01-11T02:58:22.571Z,101545.41
2019-01-11T02:59:24.618Z,101543.73
2019-01-11T03:00:26.570Z,101535.76
2019-01-11T03:01:28.516Z,101537.98
2019-01-11T03:02:30.450Z,101544.86
2019-01-11T03:03:32.958Z,101540.96
2019-01-11T03:04:34.954Z,101540.20
2019-01-11T03:05:36.893Z,101530.01
2019-01-11T03:06:38.834Z,101537.44
2019-01-11T03:07:44.472Z,101531.86
2019-01-11T03:08:46.500Z,101529.63
2019-01-11T03:09:48.489Z,101527.41
2019-01-11T03:10:51.776Z,101526.48
2019-01-11T03:11:53.818Z,101524.26
2019-01-11T03:12:55.752Z,101523.12
2019-01-11T03:13:57.688Z,101523.12
2019-01-11T03:14:59.661Z,101516.08
2019-01-11T03:16:01.629Z,101519.06
2019-01-11T03:17:03.636Z,101517.76
2019-01-11T03:18:05.589Z,101517.76
2019-01-11T03:19:07.857Z,101511.80
2019-01-11T03:20:09.839Z,101511.59
2019-01-11T03:21:11.837Z,101511.25
2019-01-11T03:22:13.768Z,101505.68
2019-01-11T03:23:15.713Z,101509.00
2019-01-11T03:24:17.654Z,101509.58
2019-01-11T03:25:19.647Z,101508.28
2019-01-11T03:26:23.071Z,101501.20
2019-01-11T03:27:25.004Z,101507.90
2019-01-11T03:28:26.987Z,101503.63
2019-01-11T03:29:29.074Z,101494.35
2019-01-11T03:30:31.129Z,101493.77
2019-01-11T03:31:35.363Z,101494.90
2019-01-11T03:32:37.372Z,101493.97
2019-01-11T03:33:39.401Z,101495.27
2019-01-11T03:35:06.426Z,101487.84
2019-01-11T03:36:08.907Z,101492.09
2019-01-11T03:37:10.848Z,101488.19
2019-01-11T03:38:12.776Z,101490.08
2019-01-11T03:39:14.704Z,101494.35
2019-01-11T03:40:16.651Z,101486.55
2019-01-11T03:41:18.595Z,101484.29
2019-01-11T03:42:21.091Z,101483.95
2019-01-11T03:43:23.031Z,101486.55
2019-01-11T03:44:24.983Z,101482.98
2019-01-11T03:45:26.924Z,101478.54
2019-01-11T03:46:28.887Z,101477.78
2019-01-11T03:47:30.851Z,101478.74
2019-01-11T03:48:33.171Z,101469.98
2019-01-11T03:49:35.100Z,101479.09
2019-01-11T03:50:37.034Z,101476.48
2019-01-11T03:51:39.021Z,101476.14
2019-01-11T03:52:40.961Z,101470.36
2019-01-11T03:53:42.912Z,101469.64
2019-01-11T03:54:44.914Z,101475.19
2019-01-11T03:55:46.856Z,101470.94
2019-01-11T03:56:48.827Z,101467.38
2019-01-11T03:57:50.768Z,101464.44
2019-01-11T03:58:52.770Z,101462.19
2019-01-11T03:59:54.784Z,101461.84
2019-01-11T04:00:56.811Z,101463.14
2019-01-11T04:01:58.809Z,101454.37
2019-01-11T04:03:00.923Z,101452.53
2019-01-11T04:04:02.941Z,101450.31
2019-01-11T04:05:07.037Z,101453.83
2019-01-11T04:06:08.998Z,101443.98
2019-01-11T04:07:11.059Z,101444.35
2019-01-11T04:08:13.062Z,101449.93
2019-01-11T04:09:15.070Z,101447.88
2019-01-11T04:10:17.077Z,101431.34
2019-01-11T04:11:22.648Z,101439.16
2019-01-11T04:12:24.629Z,101439.73
2019-01-11T04:13:30.488Z,101437.84
2019-01-11T04:14:30.247Z,101438.77
2019-01-11T04:15:32.481Z,101438.23
2019-01-11T04:16:34.506Z,101430.97
2019-01-11T04:17:36.656Z,101426.73
2019-01-11T04:18:53.703Z,101434.88
2019-01-11T04:20:01.716Z,101432.27
2019-01-11T04:20:59.398Z,101430.97
2019-01-11T04:22:08.882Z,101431.17
2019-01-11T04:23:10.923Z,101425.77
2019-01-11T04:24:12.885Z,101429.50
2019-01-11T04:25:19.954Z,101422.45
2019-01-11T04:26:25.630Z,101422.45
2019-01-11T04:27:28.648Z,101416.49
2019-01-11T04:28:30.663Z,101421.15
2019-01-11T04:29:32.692Z,101417.80
2019-01-11T04:30:38.295Z,101422.08
2019-01-11T04:31:40.313Z,101415.73
2019-01-11T04:32:42.268Z,101417.80
2019-01-11T04:33:44.319Z,101411.67
2019-01-11T04:34:48.557Z,101406.09
2019-01-11T04:35:50.519Z,101413.52
2019-01-11T04:36:52.627Z,101417.96
2019-01-11T04:37:54.581Z,101414.06
2019-01-11T04:38:56.592Z,101411.08
2019-01-11T04:39:59.162Z,101408.86
2019-01-11T04:41:01.101Z,101407.55
2019-01-11T04:42:03.055Z,101414.60
2019-01-11T04:43:05.074Z,101406.42
2019-01-11T04:44:07.121Z,101404.58
2019-01-11T04:45:09.069Z,101399.75
2019-01-11T04:46:11.021Z,101405.12
2019-01-11T04:47:12.975Z,101396.39
2019-01-11T04:48:14.931Z,101405.29
2019-01-11T04:49:17.609Z,101405.12
2019-01-11T04:50:19.724Z,101403.06
2019-01-11T04:51:21.674Z,101403.06
2019-01-11T04:52:23.609Z,101401.39
2019-01-11T04:53:25.562Z,101391.36
2019-01-11T04:54:27.931Z,101398.41
2019-01-11T04:55:29.852Z,101399.55
2019-01-11T04:56:32.307Z,101391.20
2019-01-11T04:57:34.355Z,101388.38
2019-01-11T04:58:36.297Z,101399.33
2019-01-11T04:59:39.690Z,101394.51
2019-01-11T05:00:41.635Z,101394.88
2019-01-11T05:01:43.791Z,101392.66
2019-01-11T05:02:45.733Z,101393.05
2019-01-11T05:03:47.690Z,101392.28
2019-01-11T05:04:49.762Z,101394.51
2019-01-11T05:05:51.776Z,101397.11
2019-01-11T05:06:53.720Z,101389.84
2019-01-11T05:07:55.679Z,101396.35
2019-01-11T05:08:57.695Z,101389.84
2019-01-11T05:10:00.437Z,101381.50
2019-01-11T05:11:03.132Z,101383.18
2019-01-11T05:12:05.049Z,101383.34
2019-01-11T05:13:26.265Z,101376.30
2019-01-11T05:14:28.204Z,101370.94
2019-01-11T05:15:30.248Z,101373.53
2019-01-11T05:16:39.243Z,101373.32
2019-01-11T05:17:35.895Z,101376.47
2019-01-11T05:18:37.863Z,101372.02
2019-01-11T05:19:39.813Z,101371.48
2019-01-11T05:20:41.868Z,101374.62
2019-01-11T05:21:43.862Z,101375.17
2019-01-11T05:22:46.105Z,101368.50
2019-01-11T05:23:48.793Z,101368.13
2019-01-11T05:24:50.735Z,101362.00
2019-01-11T05:25:52.699Z,101365.52
2019-01-11T05:26:54.871Z,101366.98
2019-01-11T05:27:57.369Z,101364.22
2019-01-11T05:28:59.299Z,101355.49
2019-01-11T05:30:04.762Z,101355.11
2019-01-11T05:31:06.758Z,101356.03
2019-01-11T05:32:08.776Z,101360.69
2019-01-11T05:33:10.730Z,101355.49
2019-01-11T05:34:12.938Z,101355.28
2019-01-11T05:35:14.881Z,101356.20
2019-01-11T05:36:16.889Z,101350.08
2019-01-11T05:37:18.833Z,101348.40
2019-01-11T05:38:20.793Z,101351.75
2019-01-11T05:39:22.786Z,101353.06
2019-01-11T05:40:24.830Z,101350.45
2019-01-11T05:41:26.885Z,101351.00
2019-01-11T05:42:28.926Z,101348.78
2019-01-11T05:43:30.880Z,101353.60
2019-01-11T05:44:33.607Z,101350.08
2019-01-11T05:45:35.790Z,101347.27
2019-01-11T05:46:37.766Z,101341.68
2019-01-11T05:47:40.086Z,101344.66
2019-01-11T05:48:42.578Z,101343.36
2019-01-11T05:49:44.519Z,101341.30
2019-01-11T05:50:46.546Z,101344.11
2019-01-11T05:51:48.530Z,101342.59
2019-01-11T05:52:50.477Z,101344.81
2019-01-11T05:53:52.428Z,101338.69
2019-01-11T05:54:54.454Z,101337.17
2019-01-11T05:55:58.011Z,101338.09
2019-01-11T05:56:59.984Z,101337.34
2019-01-11T05:58:19.916Z,101331.38
2019-01-11T05:59:21.858Z,101329.16
2019-01-11T06:00:23.804Z,101327.64
2019-01-11T06:01:25.825Z,101327.64
2019-01-11T06:02:27.782Z,101322.61
2019-01-11T06:03:29.730Z,101320.92
2019-01-11T06:04:44.770Z,101323.91
2019-01-11T06:05:46.714Z,101317.02
2019-01-11T06:07:06.489Z,101323.52
2019-01-11T06:08:13.688Z,101321.84
2019-01-11T06:09:15.642Z,101325.37
2019-01-11T06:10:17.588Z,101319.24
2019-01-11T06:11:19.520Z,101321.84
2019-01-11T06:12:22.608Z,101324.81
2019-01-11T06:13:24.618Z,101323.89
2019-01-11T06:14:26.611Z,101327.80
2019-01-11T06:15:28.560Z,101326.11
2019-01-11T06:16:30.518Z,101327.25
2019-01-11T06:17:32.518Z,101327.97
2019-01-11T06:18:34.510Z,101332.80
2019-01-11T06:19:36.636Z,101324.99
2019-01-11T06:20:38.643Z,101327.97
2019-01-11T06:21:40.598Z,101328.17
2019-01-11T06:22:42.541Z,101326.29
2019-01-11T06:23:44.515Z,101328.34
2019-01-11T06:24:46.524Z,101325.20
2019-01-11T06:25:48.452Z,101331.70
2019-01-11T06:26:52.092Z,101328.73
2019-01-11T06:27:54.094Z,101320.38
2019-01-11T06:28:56.082Z,101326.89
2019-01-11T06:29:58.038Z,101329.32
2019-01-11T06:30:59.972Z,101328.40
2019-01-11T06:32:03.077Z,101326.72
2019-01-11T06:33:08.378Z,101322.66
2019-01-11T06:34:10.355Z,101313.93
2019-01-11T06:35:12.964Z,101322.66
2019-01-11T06:36:14.926Z,101316.36
2019-01-11T06:37:16.866Z,101311.16
2019-01-11T06:38:19.077Z,101311.54
2019-01-11T06:39:21.057Z,101318.20
2019-01-11T06:40:23.013Z,101317.28
2019-01-11T06:41:26.599Z,101311.54
2019-01-11T06:42:28.722Z,101304.49
2019-01-11T06:43:30.663Z,101306.34
2019-01-11T06:44:38.767Z,101299.29
2019-01-11T06:45:36.971Z,101298.16
2019-01-11T06:46:38.913Z,101289.81
2019-01-11T06:47:40.927Z,101293.16
2019-01-11T06:48:43.344Z,101290.95
2019-01-11T06:49:45.393Z,101290.78
2019-01-11T06:50:47.330Z,101293.38
2019-01-11T06:51:50.999Z,101291.16
2019-01-11T06:52:53.004Z,101290.78
2019-01-11T06:53:54.954Z,101292.46
2019-01-11T06:54:56.954Z,101288.56
2019-01-11T06:55:58.936Z,101280.38
2019-01-11T06:57:00.984Z,101284.08
2019-01-11T06:58:02.984Z,101276.11
2019-01-11T06:59:10.152Z,101270.15
2019-01-11T07:00:12.215Z,101282.78
2019-01-11T07:01:14.216Z,101281.09
2019-01-11T07:02:16.175Z,101286.52
2019-01-11T07:03:18.209Z,101291.34
2019-01-11T07:04:20.650Z,101283.91
2019-01-11T07:05:22.625Z,101284.83
2019-01-11T07:06:24.570Z,101285.59
2019-01-11T07:07:26.505Z,101284.67
2019-01-11T07:08:28.464Z,101279.09
2019-01-11T07:09:30.426Z,101291.17
2019-01-11T07:10:32.389Z,101282.45
2019-01-11T07:11:34.337Z,101282.83
2019-01-11T07:12:36.276Z,101285.05
2019-01-11T07:13:38.207Z,101291.17
2019-01-11T07:14:40.169Z,101288.03
2019-01-11T07:15:42.194Z,101293.61
2019-01-11T07:16:44.138Z,101282.83
2019-01-11T07:17:46.141Z,101290.63
2019-01-11T07:18:48.132Z,101291.39
2019-01-11T07:19:51.717Z,101293.83
2019-01-11T07:20:53.769Z,101295.67
2019-01-11T07:21:55.727Z,101292.69
2019-01-11T07:22:57.751Z,101294.91
2019-01-11T07:23:59.697Z,101293.06
2019-01-11T07:25:01.645Z,101288.63
2019-01-11T07:26:03.674Z,101291.39
2019-01-11T07:27:05.611Z,101290.84
2019-01-11T07:28:13.513Z,101288.24
2019-01-11T07:29:11.245Z,101292.14
2019-01-11T07:30:13.285Z,101296.05
2019-01-11T07:31:17.594Z,101291.22
2019-01-11T07:32:19.555Z,101288.63
2019-01-11T07:33:23.001Z,101284.72
2019-01-11T07:34:24.937Z,101289.00
2019-01-11T07:35:35.613Z,101293.28
2019-01-11T07:36:37.988Z,101289.38
2019-01-11T07:37:39.911Z,101287.53
2019-01-11T07:38:45.461Z,101300.16
2019-01-11T07:39:47.421Z,101290.30
2019-01-11T07:40:49.381Z,101292.36
2019-01-11T07:41:51.966Z,101290.68
2019-01-11T07:42:53.922Z,101286.78
2019-01-11T07:43:55.933Z,101291.44
2019-01-11T07:44:57.884Z,101285.31
2019-01-11T07:45:59.829Z,101295.34
2019-01-11T07:47:01.818Z,101288.30
2019-01-11T07:48:03.785Z,101277.89
2019-01-11T07:49:05.735Z,101276.75
2019-01-11T07:50:07.691Z,101275.29
2019-01-11T07:51:09.654Z,101286.23
2019-01-11T07:52:12.133Z,101286.99
2019-01-11T07:53:14.147Z,101286.07
2019-01-11T07:54:16.113Z,101297.39
2019-01-11T07:55:18.107Z,101285.69
2019-01-11T07:56:20.063Z,101286.61
2019-01-11T07:57:22.096Z,101294.03
2019-01-11T07:58:24.115Z,101289.22
2019-01-11T07:59:26.080Z,101287.16
2019-01-11T08:00:28.308Z,101284.02
2019-01-11T08:01:35.446Z,101284.94
2019-01-11T08:02:37.433Z,101287.16
2019-01-11T08:03:39.421Z,101297.56
2019-01-11T08:04:41.367Z,101298.70
2019-01-11T08:05:43.301Z,101289.97
2019-01-11T08:06:47.612Z,101298.31
2019-01-11T08:07:48.968Z,101289.59
2019-01-11T08:08:51.434Z,101289.59
2019-01-11T08:09:53.588Z,101299.24
2019-01-11T08:10:55.587Z,101294.03
2019-01-11T08:11:57.548Z,101297.94
2019-01-11T08:12:59.536Z,101303.90
2019-01-11T08:14:01.470Z,101304.44
2019-01-11T08:15:05.163Z,101297.02
2019-01-11T08:16:07.354Z,101298.48
2019-01-11T08:17:12.482Z,101301.46
2019-01-11T08:18:14.466Z,101293.12
2019-01-11T08:19:16.538Z,101300.00
2019-01-11T08:20:18.572Z,101299.24
2019-01-11T08:21:20.579Z,101289.59
2019-01-11T08:22:34.188Z,101301.46
2019-01-11T08:23:36.158Z,101290.52
2019-01-11T08:24:39.770Z,101289.22
2019-01-11T08:25:41.707Z,101279.19
2019-01-11T08:26:43.652Z,101284.39
2019-01-11T08:27:45.652Z,101274.91
2019-01-11T08:28:47.688Z,101279.19
2019-01-11T08:29:49.704Z,101282.71
2019-01-11T08:30:51.635Z,101293.28
2019-01-11T08:31:53.610Z,101287.70
2019-01-11T08:32:55.634Z,101292.14
2019-01-11T08:33:57.612Z,101286.94
2019-01-11T08:34:59.560Z,101292.52
2019-01-11T08:36:01.506Z,101290.47
2019-01-11T08:37:03.466Z,101286.41
2019-01-11T08:38:05.497Z,101284.72
2019-01-11T08:39:07.445Z,101289.17
2019-01-11T08:40:09.402Z,101302.17
2019-01-11T08:41:11.348Z,101294.37
2019-01-11T08:42:13.286Z,101296.97
2019-01-11T08:43:15.281Z,101293.45
2019-01-11T08:44:17.278Z,101290.30
2019-01-11T08:45:19.218Z,101298.11
2019-01-11T08:46:21.170Z,101296.05
2019-01-11T08:47:23.177Z,101288.63
2019-01-11T08:48:25.122Z,101296.42
2019-01-11T08:49:27.141Z,101291.22
2019-01-11T08:50:29.959Z,101292.52
2019-01-11T08:51:31.899Z,101289.55
2019-01-11T08:52:33.848Z,101291.39
2019-01-11T08:53:35.807Z,101289.00
2019-01-11T08:54:37.839Z,101291.39
2019-01-11T08:55:39.867Z,101283.96
2019-01-11T08:56:41.833Z,101281.36
2019-01-11T08:57:43.805Z,101281.36
2019-01-11T08:58:46.116Z,101283.58
2019-01-11T08:59:48.079Z,101279.69
2019-01-11T09:00:50.155Z,101277.63
2019-01-11T09:01:52.112Z,101270.58
2019-01-11T09:02:54.114Z,101270.58
2019-01-11T09:03:56.128Z,101266.68
2019-01-11T09:04:58.084Z,101263.53
2019-01-11T09:06:00.060Z,101266.30
2019-01-11T09:07:03.145Z,101265.00
2019-01-11T09:08:05.113Z,101261.64
2019-01-11T09:09:07.148Z,101252.53
2019-01-11T09:10:09.134Z,101246.41
2019-01-11T09:11:11.067Z,101244.35
2019-01-11T09:12:13.091Z,101243.44
2019-01-11T09:13:15.067Z,101243.81
2019-01-11T09:14:37.049Z,101232.65
2019-01-11T09:15:39.015Z,101246.41
2019-01-11T09:16:40.985Z,101242.12
2019-01-11T09:18:01.552Z,101234.33
2019-01-11T09:19:05.189Z,101241.21
2019-01-11T09:20:07.134Z,101233.03
2019-01-11T09:21:10.043Z,101229.13
2019-01-11T09:22:14.159Z,101223.55
2019-01-11T09:23:16.103Z,101230.05
2019-01-11T09:24:18.044Z,101230.05
2019-01-11T09:25:19.972Z,101230.97
2019-01-11T09:26:21.945Z,101233.19
2019-01-11T09:27:23.963Z,101228.75
2019-01-11T09:28:25.889Z,101225.01
2019-01-11T09:29:28.012Z,101219.80
2019-01-11T09:30:29.960Z,101214.60
2019-01-11T09:31:32.046Z,101214.98
2019-01-11T09:32:34.001Z,101212.38
2019-01-11T09:33:35.951Z,101214.60
2019-01-11T09:34:37.893Z,101214.22
2019-01-11T09:35:39.846Z,101220.73
2019-01-11T09:36:42.038Z,101215.14
2019-01-11T09:37:44.002Z,101217.74
2019-01-11T09:38:45.960Z,101223.33
2019-01-11T09:39:47.994Z,101231.67
2019-01-11T09:40:50.219Z,101229.83
2019-01-11T09:41:52.493Z,101231.33
2019-01-11T09:42:54.448Z,101222.03
2019-01-11T09:43:56.473Z,101223.87
2019-01-11T09:44:58.410Z,101225.17
2019-01-11T09:46:00.355Z,101227.42
2019-01-11T09:47:02.348Z,101227.77
2019-01-11T09:48:04.303Z,101219.05
2019-01-11T09:49:06.308Z,101222.57
2019-01-11T09:50:08.283Z,101219.05
2019-01-11T09:51:15.664Z,101213.13
2019-01-11T09:52:14.006Z,101213.66
2019-01-11T09:53:16.029Z,101213.13
2019-01-11T09:54:18.005Z,101218.33
2019-01-11T09:55:20.011Z,101226.13
2019-01-11T09:56:22.027Z,101222.57
2019-01-11T09:57:24.033Z,101216.06
2019-01-11T09:58:25.992Z,101206.96
2019-01-11T09:59:27.918Z,101204.02
2019-01-11T10:00:29.861Z,101199.73
2019-01-11T10:01:31.807Z,101206.23
2019-01-11T10:02:38.781Z,101197.86
2019-01-11T10:03:40.974Z,101198.05
2019-01-11T10:04:42.969Z,101198.05
2019-01-11T10:05:44.989Z,101199.73
2019-01-11T10:07:07.323Z,101199.73
2019-01-11T10:08:09.293Z,101195.83
2019-01-11T10:09:11.250Z,101189.87
2019-01-11T10:10:13.279Z,101195.08
2019-01-11T10:11:15.294Z,101194.31
2019-01-11T10:12:17.251Z,101193.77
2019-01-11T10:13:19.300Z,101186.34
2019-01-11T10:14:21.335Z,101184.12
2019-01-11T10:15:23.293Z,101192.66
2019-01-11T10:16:25.269Z,101200.84
2019-01-11T10:17:27.211Z,101205.66
2019-01-11T10:18:29.249Z,101194.53
2019-01-11T10:19:31.685Z,101198.81
2019-01-11T10:20:34.187Z,101198.44
2019-01-11T10:21:36.140Z,101201.95
2019-01-11T10:22:38.143Z,101201.41
2019-01-11T10:23:40.133Z,101202.14
2019-01-11T10:24:42.115Z,101203.06
2019-01-11T10:25:44.101Z,101197.52
2019-01-11T10:26:46.058Z,101204.94
2019-01-11T10:27:48.005Z,101203.82
2019-01-11T10:28:51.875Z,101201.59
2019-01-11T10:29:53.883Z,101215.52
2019-01-11T10:31:00.681Z,101207.72
2019-01-11T10:31:59.516Z,101210.32
2019-01-11T10:33:01.513Z,101198.45
2019-01-11T10:34:03.517Z,101207.17
2019-01-11T10:35:05.527Z,101196.99
2019-01-11T10:36:08.739Z,101198.12
2019-01-11T10:37:10.688Z,101197.75
2019-01-11T10:38:12.633Z,101200.89
2019-01-11T10:39:14.587Z,101193.63
2019-01-11T10:40:16.549Z,101184.91
2019-01-11T10:41:18.546Z,101183.98
2019-01-11T10:42:20.490Z,101186.97
2019-01-11T10:43:22.426Z,101191.41
2019-01-11T10:44:24.415Z,101192.17
2019-01-11T10:45:26.485Z,101185.28
2019-01-11T10:46:38.173Z,101196.23
2019-01-11T10:47:40.124Z,101188.43
2019-01-11T10:48:42.067Z,101194.39
2019-01-11T10:49:45.315Z,101182.31
2019-01-11T10:50:47.262Z,101186.97
2019-01-11T10:51:49.227Z,101187.34
2019-01-11T10:52:51.167Z,101189.95
2019-01-11T10:53:53.116Z,101189.19
2019-01-11T10:54:55.059Z,101186.59
2019-01-11T10:55:57.005Z,101190.11
2019-01-11T10:56:59.027Z,101179.70
2019-01-11T10:58:00.969Z,101171.36
2019-01-11T10:59:06.584Z,101180.09
2019-01-11T11:00:09.252Z,101174.88
2019-01-11T11:01:11.187Z,101179.70
2019-01-11T11:02:13.145Z,101177.86
2019-01-11T11:03:15.107Z,101178.78
2019-01-11T11:04:17.051Z,101176.56
2019-01-11T11:05:19.002Z,101176.94
2019-01-11T11:06:20.971Z,101169.68
2019-01-11T11:07:22.970Z,101178.78
2019-01-11T11:08:24.906Z,101179.16
2019-01-11T11:09:26.860Z,101167.45
2019-01-11T11:10:28.887Z,101169.14
2019-01-11T11:11:30.822Z,101173.96
2019-01-11T11:12:32.877Z,101170.98
2019-01-11T11:13:34.925Z,101173.58
2019-01-11T11:14:36.944Z,101167.08
2019-01-11T11:15:42.401Z,101174.88
2019-01-11T11:16:44.346Z,101177.11
2019-01-11T11:17:46.315Z,101175.80
2019-01-11T11:18:48.272Z,101173.58
2019-01-11T11:19:50.311Z,101177.48
2019-01-11T11:20:52.248Z,101169.68
2019-01-11T11:21:54.192Z,101167.45
2019-01-11T11:22:56.311Z,101169.52
2019-01-11T11:23:58.264Z,101164.31
2019-01-11T11:25:00.242Z,101170.44
2019-01-11T11:26:02.182Z,101169.14
2019-01-11T11:27:06.250Z,101168.92
2019-01-11T11:28:10.394Z,101175.42
2019-01-11T11:29:12.372Z,101175.05
2019-01-11T11:30:14.343Z,101170.22
2019-01-11T11:31:16.295Z,101165.02
2019-01-11T11:32:21.712Z,101156.84
2019-01-11T11:33:23.675Z,101157.59
2019-01-11T11:34:25.624Z,101161.50
2019-01-11T11:35:27.648Z,101162.80
2019-01-11T11:36:29.607Z,101155.00
2019-01-11T11:37:31.563Z,101154.08
2019-01-11T11:38:36.990Z,101156.67
2019-01-11T11:39:38.932Z,101152.78
2019-01-11T11:40:41.078Z,101160.20
2019-01-11T11:41:43.084Z,101155.37
2019-01-11T11:42:45.028Z,101150.55
2019-01-11T11:43:46.992Z,101155.75
2019-01-11T11:44:48.939Z,101140.53
2019-01-11T11:45:51.149Z,101143.29
2019-01-11T11:46:53.182Z,101136.09
2019-01-11T11:47:55.114Z,101132.73
2019-01-11T11:48:57.062Z,101135.33
2019-01-11T11:49:59.072Z,101130.67
2019-01-11T11:51:01.039Z,101120.64
2019-01-11T11:52:02.997Z,101129.74
2019-01-11T11:53:04.921Z,101118.80
2019-01-11T11:54:06.856Z,101115.82
2019-01-11T11:55:08.810Z,101108.94